»·PEaware :: N441PW KWDG-KOFF

N441PW :: KWDG-KOFF

FLIGHT INFORMATION

Flight Status: Arrived
Operator: Privately registered:
United States
More flights under this callsign
Pilot: Stacy K. (11621)
Aircraft: CESSNA 404 TITAN
(C404)
More flights by this aircraft type
Origin: KWDG Enid Woodring Regl
United States
Destination: KOFF Offutt AFB
United States
More flights between these airports :: More routes between these airports
Route: PER EWK MHK BIE PMV
File this flight plan on PilotEdge
Remarks:
Altitude:
(Current/Filed)
4,500ft
Speed:
(Current/Filed)
190kts
Departed: 14-Jun-19 02:08 PM
Arrived: 14-Jun-19 03:58 PM
Distance/Time
Traveled:
297nm/1:50
Distance/Time
To Go:
Arrived

Flight Plot

Page will automatically refresh every two minutes.

Flight plan parsing failed; only flown route is shown


Map Options




Map Legend


Flown Route
Filed Route
Departure Airport
Arrival Airport
Navaid (VOR, NDB)
Fix

Horizontal Profiles

Position Reports

Time Latitude Longitude Heading Altitude Ground
Speed
14-Jun-19 14:06 36.475224 -97.621748 46 4485ft 186kts
14-Jun-19 14:07 36.506753 -97.568493 47 4080ft 199kts
14-Jun-19 14:08 36.539885 -97.512427 47 3515ft 198kts
14-Jun-19 14:09 36.571735 -97.458496 48 3508ft 190kts
14-Jun-19 14:10 36.602939 -97.405298 48 3503ft 190kts
14-Jun-19 14:11 36.634229 -97.352065 48 3505ft 190kts
14-Jun-19 14:12 36.665543 -97.298618 48 3506ft 190kts
14-Jun-19 14:13 36.696912 -97.244988 48 3503ft 191kts
14-Jun-19 14:14 36.728257 -97.191367 48 3502ft 191kts
14-Jun-19 14:15 36.770032 -97.161896 353 3504ft 177kts
14-Jun-19 14:16 36.819142 -97.166199 352 3499ft 176kts
14-Jun-19 14:17 36.867320 -97.170294 352 3800ft 166kts
14-Jun-19 14:18 36.912128 -97.174068 353 4439ft 159kts
14-Jun-19 14:19 36.958804 -97.178113 353 4503ft 173kts
14-Jun-19 14:20 37.006660 -97.182205 353 4496ft 176kts
14-Jun-19 14:21 37.055104 -97.186358 354 4505ft 173kts
14-Jun-19 14:22 37.103328 -97.190431 353 4501ft 173kts
14-Jun-19 14:23 37.151474 -97.194410 354 4502ft 173kts
14-Jun-19 14:24 37.197896 -97.198381 353 4497ft 173kts
14-Jun-19 14:25 37.246052 -97.202489 353 4501ft 173kts
14-Jun-19 14:26 37.293896 -97.206690 353 4500ft 172kts
14-Jun-19 14:27 37.339314 -97.210600 353 5114ft 156kts
14-Jun-19 14:28 37.381931 -97.214217 354 5798ft 152kts
14-Jun-19 14:29 37.424036 -97.218092 353 6438ft 155kts
14-Jun-19 14:30 37.469554 -97.221970 353 6495ft 168kts
14-Jun-19 14:31 37.516712 -97.225848 354 6493ft 170kts
14-Jun-19 14:32 37.563732 -97.229936 355 6501ft 168kts
14-Jun-19 14:33 37.610900 -97.234091 354 6497ft 169kts
14-Jun-19 14:34 37.658155 -97.238085 355 6500ft 170kts
14-Jun-19 14:35 37.705621 -97.242253 355 6488ft 170kts
14-Jun-19 14:36 37.752700 -97.246270 354 6493ft 168kts
14-Jun-19 14:37 37.799459 -97.250429 354 6490ft 168kts
14-Jun-19 14:38 37.846089 -97.254363 354 6489ft 168kts
14-Jun-19 14:39 37.895511 -97.258776 354 5834ft 183kts
14-Jun-19 14:40 37.946508 -97.263146 355 5137ft 184kts
14-Jun-19 14:41 37.997587 -97.267599 354 4520ft 181kts
14-Jun-19 14:42 38.046276 -97.271828 355 4477ft 171kts
14-Jun-19 14:43 38.093424 -97.257801 19 4091ft 184kts
14-Jun-19 14:44 38.140739 -97.231244 20 3524ft 186kts
14-Jun-19 14:45 38.186592 -97.205810 19 3480ft 176kts
14-Jun-19 14:46 38.231558 -97.181130 19 3477ft 176kts
14-Jun-19 14:47 38.276336 -97.156217 19 3498ft 175kts
14-Jun-19 14:48 38.321195 -97.131453 18 3497ft 175kts
14-Jun-19 14:49 38.365961 -97.106418 18 3495ft 175kts
14-Jun-19 14:50 38.410735 -97.081574 19 3493ft 175kts
14-Jun-19 14:51 38.455631 -97.056682 18 3491ft 176kts
14-Jun-19 14:52 38.500497 -97.031793 19 3489ft 175kts
14-Jun-19 14:53 38.545013 -97.006919 19 3486ft 174kts
14-Jun-19 14:54 38.589506 -96.981911 19 3496ft 176kts
14-Jun-19 14:55 38.634468 -96.956947 20 3492ft 176kts
14-Jun-19 14:56 38.680062 -96.931438 19 3492ft 177kts
14-Jun-19 14:57 38.726378 -96.905468 19 3479ft 179kts
14-Jun-19 14:58 38.771890 -96.880286 18 3482ft 176kts
14-Jun-19 14:59 38.817206 -96.854479 19 3481ft 177kts
14-Jun-19 15:00 38.862514 -96.828917 19 3480ft 176kts
14-Jun-19 15:01 38.908087 -96.803164 19 3468ft 177kts
14-Jun-19 15:02 38.952825 -96.777796 19 3469ft 175kts
14-Jun-19 15:03 38.997317 -96.752589 19 3487ft 174kts
14-Jun-19 15:04 39.043303 -96.726682 19 3457ft 178kts
14-Jun-19 15:05 39.088250 -96.701197 19 3472ft 175kts
14-Jun-19 15:06 39.133734 -96.675322 19 3476ft 176kts
14-Jun-19 15:07 39.181353 -96.670803 355 3738ft 163kts
14-Jun-19 15:08 39.224900 -96.674317 354 4399ft 154kts
14-Jun-19 15:09 39.270481 -96.677900 355 4496ft 169kts
14-Jun-19 15:10 39.317451 -96.681162 354 4522ft 169kts
14-Jun-19 15:11 39.366211 -96.684886 355 4492ft 173kts
14-Jun-19 15:12 39.413751 -96.688371 355 4504ft 170kts
14-Jun-19 15:13 39.461537 -96.691966 355 4502ft 171kts
14-Jun-19 15:14 39.509556 -96.695467 354 4512ft 171kts
14-Jun-19 15:15 39.558494 -96.699000 355 4511ft 173kts
14-Jun-19 15:16 39.607026 -96.702496 355 4515ft 172kts
14-Jun-19 15:17 39.655926 -96.706276 354 4511ft 173kts
14-Jun-19 15:18 39.704905 -96.709838 355 4499ft 172kts
14-Jun-19 15:19 39.752848 -96.713458 354 4498ft 170kts
14-Jun-19 15:20 39.800026 -96.716813 355 4509ft 169kts
14-Jun-19 15:22 39.847755 -96.720434 354 4522ft 171kts
14-Jun-19 15:23 39.896550 -96.724104 354 4500ft 172kts
14-Jun-19 15:24 39.944029 -96.727779 354 4513ft 169kts
14-Jun-19 15:25 39.992282 -96.731472 354 4517ft 171kts
14-Jun-19 15:26 40.041287 -96.735093 354 4492ft 173kts
14-Jun-19 15:27 40.088733 -96.738631 354 4499ft 170kts
14-Jun-19 15:28 40.136238 -96.742177 355 4507ft 171kts
14-Jun-19 15:29 40.184740 -96.745892 355 4500ft 172kts
14-Jun-19 15:30 40.233173 -96.749397 354 4498ft 172kts
14-Jun-19 15:31 40.282091 -96.753046 355 4508ft 172kts
14-Jun-19 15:32 40.325672 -96.723987 38 4005ft 192kts
14-Jun-19 15:33 40.364258 -96.673294 39 3512ft 189kts
14-Jun-19 15:34 40.400625 -96.626045 38 3515ft 181kts
14-Jun-19 15:35 40.437019 -96.578626 38 3506ft 182kts
14-Jun-19 15:36 40.473218 -96.531850 38 3498ft 181kts
14-Jun-19 15:37 40.508848 -96.485211 38 3504ft 180kts
14-Jun-19 15:38 40.544765 -96.438371 38 3501ft 180kts
14-Jun-19 15:39 40.580443 -96.391774 38 3503ft 180kts
14-Jun-19 15:39 40.610010 -96.352918 38 3500ft 180kts
14-Jun-19 15:41 40.651431 -96.298656 38 3511ft 180kts
14-Jun-19 15:42 40.687481 -96.251477 38 3510ft 182kts
14-Jun-19 15:42 40.717488 -96.211907 38 3495ft 182kts
14-Jun-19 15:43 40.753634 -96.164298 39 3236ft 189kts
14-Jun-19 15:45 40.797422 -96.106448 40 2638ft 188kts
14-Jun-19 15:45 40.826050 -96.068463 39 3205ft 166kts
14-Jun-19 15:46 40.859759 -96.023930 39 3310ft 180kts
14-Jun-19 15:47 40.895249 -95.976728 39 3584ft 172kts
14-Jun-19 15:48 40.929816 -95.930892 39 3889ft 180kts
14-Jun-19 15:49 40.963396 -95.883364 70 3892ft 195kts
14-Jun-19 15:50 40.963177 -95.808614 85 3794ft 201kts
14-Jun-19 15:51 40.962107 -95.735506 84 3797ft 197kts
14-Jun-19 15:52 40.991442 -95.702495 325 3690ft 176kts
14-Jun-19 15:53 41.023136 -95.752710 313 3595ft 176kts
14-Jun-19 15:54 41.055345 -95.804609 311 2740ft 190kts
14-Jun-19 15:55 41.083600 -95.850451 309 1931ft 134kts
14-Jun-19 15:56 41.106927 -95.887697 304 1234ft 116kts
14-Jun-19 15:57 41.118259 -95.909113 256 1056ft 9kts
14-Jun-19 15:58 41.114788 -95.908295 263 1056ft 18kts
14-Jun-19 15:59 41.113955 -95.910497 47 1056ft 0kts
14-Jun-19 16:00 41.113955 -95.910497 47 1056ft 0kts
14-Jun-19 16:01 41.113955 -95.910497 47 1056ft 0kts
14-Jun-19 16:02 41.113955 -95.910497 47 1056ft 0kts
14-Jun-19 16:03 41.113955 -95.910497 47 1056ft 0kts
14-Jun-19 16:04 41.113955 -95.910497 47 1056ft 0kts
14-Jun-19 16:05 41.113955 -95.910497 47 1056ft 0kts
14-Jun-19 16:06 41.113955 -95.910497 47 1056ft 0kts
14-Jun-19 16:07 41.113955 -95.910497 47 1056ft 0kts
14-Jun-19 16:08 41.113955 -95.910497 47 1056ft 0kts
14-Jun-19 16:09 41.113955 -95.910497 47 1056ft 0kts
14-Jun-19 16:10 41.113955 -95.910497 47 1056ft 0kts
14-Jun-19 16:11 41.113955 -95.910497 47 1056ft 0kts

Navigation Log

Ident Type
Flight plan parsing failed, navigation log unavailable